Time;durP1;ratioP1;P1;durP2;ratioP2;P2;SDS_P1;SDS_P2;PMS_P1;PMS_P2;Temp;Humidity;BMP_temperature;BMP_pressure;BME280_temperature;BME280_humidity;BME280_pressure;Samples;Min_cycle;Max_cycle;Signal;HPM_P1;HPM_P2
2023/12/17 00:02:01;;;;;;;16.80;12.77;;;4.10;99.90;;;;;;5113939;28;20281;-69
2023/12/17 00:04:27;;;;;;;12.67;11.20;;;4.10;99.90;;;;;;5113748;28;20180;-69
2023/12/17 00:06:52;;;;;;;17.30;10.00;;;4.10;99.90;;;;;;5113953;28;20196;-69
2023/12/17 00:09:18;;;;;;;16.50;12.00;;;4.10;99.90;;;;;;5113731;28;20192;-69
2023/12/17 00:11:43;;;;;;;11.70;8.50;;;4.10;99.90;;;;;;5113675;28;20188;-69
2023/12/17 00:14:12;;;;;;;11.87;8.90;;;4.20;99.90;;;;;;5113685;28;20222;-69
2023/12/17 00:16:38;;;;;;;11.50;9.27;;;4.30;99.90;;;;;;5113593;28;20664;-70
2023/12/17 00:19:04;;;;;;;10.77;7.80;;;4.30;99.90;;;;;;5113976;28;20410;-69
2023/12/17 00:21:30;;;;;;;10.60;7.63;;;4.30;99.90;;;;;;5113308;28;21028;-69
2023/12/17 00:23:55;;;;;;;10.20;7.70;;;4.30;99.90;;;;;;5113391;28;20177;-69
2023/12/17 00:26:21;;;;;;;8.70;6.13;;;4.30;99.90;;;;;;5113731;28;20617;-69
2023/12/17 00:28:46;;;;;;;8.37;6.30;;;4.30;99.90;;;;;;5112309;28;20538;-69
2023/12/17 00:31:12;;;;;;;13.20;7.80;;;4.30;99.90;;;;;;5113340;28;20207;-69
2023/12/17 00:33:37;;;;;;;7.23;6.53;;;4.30;99.90;;;;;;5113327;28;20307;-69
2023/12/17 00:36:03;;;;;;;9.10;6.90;;;4.20;99.90;;;;;;5113382;28;20632;-70
2023/12/17 00:38:28;;;;;;;7.50;6.80;;;4.20;99.90;;;;;;5113372;28;20173;-69
2023/12/17 00:40:54;;;;;;;7.13;6.03;;;4.20;99.90;;;;;;5113394;28;20208;-69
2023/12/17 00:43:19;;;;;;;7.50;6.60;;;4.20;99.90;;;;;;5113245;28;20179;-69
2023/12/17 00:45:45;;;;;;;8.20;5.97;;;4.10;99.90;;;;;;5111967;28;20164;-68
2023/12/17 00:48:11;;;;;;;8.10;6.20;;;4.10;99.90;;;;;;5113574;28;20172;-69
2023/12/17 00:50:36;;;;;;;8.57;7.07;;;4.10;99.90;;;;;;5113249;28;20252;-69
2023/12/17 00:53:02;;;;;;;6.33;5.73;;;4.10;99.90;;;;;;5113752;28;20643;-69
2023/12/17 00:55:27;;;;;;;8.90;6.17;;;4.10;99.90;;;;;;5113204;28;20169;-69
2023/12/17 00:57:53;;;;;;;6.20;5.40;;;4.10;99.90;;;;;;5113457;28;20285;-69
2023/12/17 01:00:18;;;;;;;8.10;6.00;;;4.10;99.90;;;;;;5113017;28;20203;-69
2023/12/17 01:02:45;;;;;;;7.80;6.40;;;4.00;99.90;;;;;;5114880;28;20215;-69
2023/12/17 01:05:11;;;;;;;10.13;6.37;;;4.00;99.90;;;;;;5117384;28;20172;-69
2023/12/17 01:07:37;;;;;;;6.97;6.13;;;4.00;99.90;;;;;;5117733;28;20430;-69
2023/12/17 01:10:02;;;;;;;6.80;6.10;;;4.00;99.90;;;;;;5117322;28;20176;-69
2023/12/17 01:12:28;;;;;;;5.90;5.10;;;4.00;99.90;;;;;;5117007;28;20192;-69
2023/12/17 01:14:53;;;;;;;5.57;4.97;;;3.90;99.90;;;;;;5117018;28;20548;-69
2023/12/17 01:17:19;;;;;;;5.33;4.83;;;4.00;99.90;;;;;;5117019;28;20180;-69
2023/12/17 01:19:44;;;;;;;8.90;6.00;;;4.00;99.90;;;;;;5117229;28;20165;-69
2023/12/17 01:22:10;;;;;;;8.90;5.50;;;4.00;99.90;;;;;;5116716;28;20212;-69
2023/12/17 01:24:36;;;;;;;4.70;4.23;;;4.00;99.90;;;;;;5116930;28;20164;-69
2023/12/17 01:27:01;;;;;;;7.07;5.13;;;3.90;99.90;;;;;;5116742;28;20169;-69
2023/12/17 01:29:27;;;;;;;6.70;5.57;;;3.90;99.90;;;;;;5116729;28;20161;-69
2023/12/17 01:31:52;;;;;;;9.27;5.13;;;3.90;99.90;;;;;;5117124;28;20210;-69
2023/12/17 01:34:21;;;;;;;6.10;4.50;;;3.90;99.90;;;;;;5116412;28;20184;-68
2023/12/17 01:36:46;;;;;;;9.20;5.73;;;3.90;99.90;;;;;;5115736;28;20661;-68
2023/12/17 01:39:12;;;;;;;6.70;5.33;;;4.00;99.90;;;;;;5116843;28;20407;-69
2023/12/17 01:41:37;;;;;;;6.63;5.00;;;4.00;99.90;;;;;;5116858;28;20204;-68
2023/12/17 01:44:03;;;;;;;6.20;5.60;;;4.00;99.90;;;;;;5116561;28;20543;-69
2023/12/17 01:46:29;;;;;;;8.27;5.47;;;3.90;99.90;;;;;;5116832;28;20225;-68
2023/12/17 01:48:54;;;;;;;14.60;6.27;;;4.00;99.90;;;;;;5116429;28;20638;-69
2023/12/17 01:51:20;;;;;;;9.63;5.33;;;3.90;99.90;;;;;;5116434;28;20718;-68
2023/12/17 01:53:46;;;;;;;6.00;5.20;;;3.90;99.90;;;;;;5116492;28;20259;-67
2023/12/17 01:56:14;;;;;;;5.50;5.00;;;3.80;99.90;;;;;;5116508;28;20403;-68
2023/12/17 01:58:40;;;;;;;6.17;5.57;;;3.90;99.90;;;;;;5116144;28;20196;-68
2023/12/17 02:01:07;;;;;;;7.83;5.50;;;3.90;99.90;;;;;;5115406;28;20462;-69
2023/12/17 02:03:33;;;;;;;10.80;5.40;;;3.90;99.90;;;;;;5116007;28;20833;-68
2023/12/17 02:06:00;;;;;;;7.37;4.90;;;3.90;99.90;;;;;;5116272;28;20398;-68
2023/12/17 02:08:26;;;;;;;7.20;4.90;;;4.00;99.90;;;;;;5116043;28;20214;-68
2023/12/17 02:10:51;;;;;;;5.10;4.60;;;3.90;99.90;;;;;;5116042;28;20794;-68
2023/12/17 02:13:17;;;;;;;5.27;4.77;;;3.90;99.90;;;;;;5115365;28;20176;-68
2023/12/17 02:15:43;;;;;;;8.77;5.40;;;3.80;99.90;;;;;;5115673;28;20172;-68
2023/12/17 02:18:08;;;;;;;9.50;5.77;;;3.70;99.90;;;;;;5115855;28;20402;-68
2023/12/17 02:20:34;;;;;;;11.73;6.20;;;3.70;99.90;;;;;;5115445;28;20176;-69
2023/12/17 02:23:03;;;;;;;6.53;5.77;;;3.60;99.90;;;;;;5115762;28;20169;-69
2023/12/17 02:25:28;;;;;;;5.43;4.93;;;3.70;99.90;;;;;;5077379;28;20166;-68
2023/12/17 02:27:57;;;;;;;7.90;5.87;;;3.70;99.90;;;;;;5077053;28;20778;-68
2023/12/17 02:30:23;;;;;;;9.07;5.57;;;3.70;99.90;;;;;;5095177;28;20165;-68
2023/12/17 02:32:50;;;;;;;7.73;6.80;;;3.70;99.90;;;;;;5095046;28;20501;-68
2023/12/17 02:35:15;;;;;;;6.47;5.80;;;3.60;99.90;;;;;;5113702;28;20403;-69
2023/12/17 02:37:41;;;;;;;9.53;6.03;;;3.70;99.90;;;;;;5115481;28;20798;-68
2023/12/17 02:40:07;;;;;;;6.93;6.23;;;3.80;99.90;;;;;;5115325;28;20165;-68
2023/12/17 02:42:33;;;;;;;8.17;6.20;;;3.70;99.90;;;;;;5115241;28;20693;-68
2023/12/17 02:44:58;;;;;;;7.00;5.63;;;3.70;99.90;;;;;;5115318;28;20506;-68
2023/12/17 02:47:24;;;;;;;8.90;7.33;;;3.70;99.90;;;;;;5115519;28;20164;-68
2023/12/17 02:49:49;;;;;;;8.93;7.50;;;3.80;99.90;;;;;;5115466;28;20646;-67
2023/12/17 02:52:15;;;;;;;7.27;6.40;;;3.70;99.90;;;;;;5114954;28;20633;-68
2023/12/17 02:54:40;;;;;;;8.70;7.80;;;3.70;99.90;;;;;;5115161;28;20180;-68
2023/12/17 02:57:06;;;;;;;12.63;8.23;;;3.60;99.90;;;;;;5114955;28;20199;-68
2023/12/17 02:59:32;;;;;;;8.40;6.97;;;3.50;99.90;;;;;;5115021;28;20662;-68
2023/12/17 03:01:57;;;;;;;10.40;7.93;;;3.40;99.90;;;;;;5114624;28;20193;-68
2023/12/17 03:04:23;;;;;;;10.67;8.13;;;3.40;99.90;;;;;;5114844;28;20748;-68
2023/12/17 03:06:49;;;;;;;12.30;9.40;;;3.40;99.90;;;;;;5096758;28;20157;-68
2023/12/17 03:09:15;;;;;;;12.57;9.40;;;3.40;99.90;;;;;;5115067;28;20497;-68
2023/12/17 03:11:41;;;;;;;13.60;9.13;;;3.40;99.90;;;;;;5114609;28;20180;-68
2023/12/17 03:14:07;;;;;;;10.20;9.00;;;3.40;99.90;;;;;;5114778;28;20919;-68
2023/12/17 03:16:32;;;;;;;11.77;8.57;;;3.50;99.90;;;;;;5114688;28;20176;-67
2023/12/17 03:18:58;;;;;;;10.27;9.20;;;3.50;99.90;;;;;;5114604;28;20585;-68
2023/12/17 03:21:26;;;;;;;13.30;10.90;;;3.50;99.90;;;;;;5114467;28;20204;-68
2023/12/17 03:23:52;;;;;;;11.13;9.90;;;3.50;99.90;;;;;;5107043;28;20206;-68
2023/12/17 03:26:17;;;;;;;13.20;10.20;;;3.50;99.90;;;;;;5093972;28;20804;-68
2023/12/17 03:28:43;;;;;;;13.17;10.67;;;3.50;99.90;;;;;;5094109;28;20204;-69
2023/12/17 03:31:13;;;;;;;11.30;10.17;;;3.50;99.90;;;;;;5094482;28;20185;-68
2023/12/17 03:33:39;;;;;;;13.07;10.20;;;3.50;99.90;;;;;;5098615;28;20152;-68
2023/12/17 03:36:05;;;;;;;13.47;11.10;;;3.50;99.90;;;;;;5114540;28;20771;-69
2023/12/17 03:38:30;;;;;;;11.27;10.13;;;3.50;99.90;;;;;;5112916;28;20176;-69
2023/12/17 03:40:56;;;;;;;14.50;10.70;;;3.40;99.90;;;;;;5113964;28;20454;-69
2023/12/17 03:43:21;;;;;;;11.87;10.17;;;3.40;99.90;;;;;;5114609;28;20218;-69
2023/12/17 03:45:47;;;;;;;12.57;11.27;;;3.50;99.90;;;;;;5113740;28;20160;-69
2023/12/17 03:48:12;;;;;;;14.63;13.00;;;3.50;99.90;;;;;;5114054;28;20161;-69
2023/12/17 03:50:38;;;;;;;13.03;11.67;;;3.40;99.90;;;;;;5114426;28;20160;-68
2023/12/17 03:53:10;;;;;;;14.53;11.50;;;3.30;99.90;;;;;;5113575;28;20263;-69
2023/12/17 03:55:38;;;;;;;15.17;13.07;;;3.30;99.90;;;;;;5113868;28;20156;-69
2023/12/17 03:58:04;;;;;;;13.03;11.67;;;3.30;99.90;;;;;;5113865;28;20452;-69
2023/12/17 04:00:30;;;;;;;11.90;10.70;;;3.30;99.90;;;;;;5113760;28;20452;-69
2023/12/17 04:02:56;;;;;;;12.33;11.13;;;3.40;99.90;;;;;;5113717;28;20423;-68
2023/12/17 04:05:25;;;;;;;14.87;12.60;;;3.50;99.90;;;;;;5113740;28;20673;-69
2023/12/17 04:07:50;;;;;;;14.40;12.87;;;3.50;99.90;;;;;;5113723;28;20168;-69
2023/12/17 04:10:16;;;;;;;12.47;10.67;;;3.50;99.90;;;;;;5114071;28;20402;-69
2023/12/17 04:12:42;;;;;;;12.67;11.37;;;3.50;99.90;;;;;;5113754;28;20192;-67
2023/12/17 04:15:07;;;;;;;17.33;12.87;;;3.50;99.90;;;;;;5113832;28;20714;-69
2023/12/17 04:17:33;;;;;;;14.97;13.17;;;3.40;99.90;;;;;;5114221;28;20195;-68
2023/12/17 04:19:58;;;;;;;15.13;13.10;;;3.40;99.90;;;;;;5113531;28;20168;-69
2023/12/17 04:22:24;;;;;;;11.43;10.33;;;3.40;99.90;;;;;;5113147;28;20212;-69
2023/12/17 04:24:49;;;;;;;12.70;11.37;;;3.30;99.90;;;;;;5098779;28;20172;-68
2023/12/17 04:27:15;;;;;;;15.73;13.63;;;3.30;99.90;;;;;;5093726;28;20170;-68
2023/12/17 04:29:41;;;;;;;14.03;12.53;;;3.30;99.90;;;;;;5093311;28;20165;-69
2023/12/17 04:32:07;;;;;;;13.93;11.70;;;3.30;99.90;;;;;;5093051;28;20780;-69
2023/12/17 04:34:32;;;;;;;14.67;11.60;;;3.20;99.90;;;;;;5103611;28;20402;-69
2023/12/17 04:36:59;;;;;;;14.43;12.90;;;3.30;99.90;;;;;;5112956;28;20168;-68
2023/12/17 04:39:25;;;;;;;13.60;12.00;;;3.20;99.90;;;;;;5112077;28;20172;-69
2023/12/17 04:41:51;;;;;;;12.70;11.40;;;3.20;99.90;;;;;;5113048;28;20869;-69
2023/12/17 04:44:17;;;;;;;13.50;11.27;;;3.20;99.90;;;;;;5113196;28;20403;-69
2023/12/17 04:46:42;;;;;;;13.23;10.80;;;3.20;99.90;;;;;;5113189;28;20194;-69
2023/12/17 04:49:08;;;;;;;13.70;10.93;;;3.20;99.90;;;;;;5113556;28;20161;-69
2023/12/17 04:51:33;;;;;;;12.73;10.97;;;3.20;99.90;;;;;;5113163;28;20192;-69
2023/12/17 04:53:59;;;;;;;12.07;10.63;;;3.20;99.90;;;;;;5112791;28;20172;-69
2023/12/17 04:56:25;;;;;;;11.83;10.63;;;3.30;99.90;;;;;;5112979;28;20168;-69
2023/12/17 04:58:50;;;;;;;15.83;11.93;;;3.30;99.90;;;;;;5096234;28;20418;-71
2023/12/17 05:01:16;;;;;;;14.03;12.53;;;3.30;99.90;;;;;;5103247;28;20601;-68
2023/12/17 05:03:41;;;;;;;13.23;11.77;;;3.30;99.90;;;;;;5103682;28;20177;-69
2023/12/17 05:06:08;;;;;;;13.60;12.03;;;3.30;99.90;;;;;;5095247;28;20181;-69
2023/12/17 05:08:34;;;;;;;14.17;12.67;;;3.30;99.90;;;;;;5065283;28;20204;-69
2023/12/17 05:10:59;;;;;;;13.27;11.93;;;3.30;99.90;;;;;;5083440;28;20466;-69
2023/12/17 05:13:25;;;;;;;15.13;13.53;;;3.20;99.90;;;;;;5102882;28;20176;-67
2023/12/17 05:15:50;;;;;;;11.30;10.20;;;3.30;99.90;;;;;;5097760;28;20326;-69
2023/12/17 05:18:16;;;;;;;14.10;12.70;;;3.30;99.90;;;;;;5064725;28;20726;-69
2023/12/17 05:20:41;;;;;;;15.40;12.30;;;3.20;99.90;;;;;;5083218;28;20268;-69
2023/12/17 05:23:10;;;;;;;9.93;8.93;;;3.20;99.90;;;;;;5103232;28;20195;-69
2023/12/17 05:25:36;;;;;;;16.83;13.07;;;3.20;99.90;;;;;;5089181;28;20174;-69
2023/12/17 05:28:01;;;;;;;11.70;10.17;;;3.20;99.90;;;;;;5103114;28;20734;-69
2023/12/17 05:30:27;;;;;;;10.67;9.57;;;3.30;99.90;;;;;;5085566;28;20184;-70
2023/12/17 05:32:52;;;;;;;11.50;10.27;;;3.30;99.90;;;;;;5103266;28;20201;-69
2023/12/17 05:35:18;;;;;;;17.70;12.90;;;3.30;99.90;;;;;;5103035;28;20176;-67
2023/12/17 05:37:43;;;;;;;12.07;10.67;;;3.30;99.90;;;;;;5083127;28;20177;-66
2023/12/17 05:40:09;;;;;;;11.70;10.50;;;3.30;99.90;;;;;;5065015;28;20212;-69
2023/12/17 05:42:36;;;;;;;15.17;12.27;;;3.30;99.90;;;;;;5083129;28;20236;-69
2023/12/17 05:45:02;;;;;;;13.87;11.00;;;3.20;99.90;;;;;;5083206;28;20901;-70
2023/12/17 05:47:28;;;;;;;13.60;12.17;;;3.20;99.90;;;;;;5083230;28;20468;-69
2023/12/17 05:49:54;;;;;;;11.30;10.10;;;3.20;99.90;;;;;;5085161;28;20185;-69
2023/12/17 05:52:19;;;;;;;13.00;10.53;;;3.30;99.90;;;;;;5086448;28;20470;-67
2023/12/17 05:54:45;;;;;;;12.10;10.90;;;3.30;99.90;;;;;;5086502;28;20774;-70
2023/12/17 05:57:10;;;;;;;10.53;9.50;;;3.30;99.90;;;;;;5086798;28;20761;-69
2023/12/17 05:59:36;;;;;;;12.63;10.80;;;3.30;99.90;;;;;;5096936;28;20283;-69
2023/12/17 06:02:02;;;;;;;11.93;10.73;;;3.20;99.90;;;;;;5106618;28;20249;-69
2023/12/17 06:04:27;;;;;;;13.27;11.43;;;3.30;99.90;;;;;;5086209;28;20177;-68
2023/12/17 06:06:55;;;;;;;13.67;11.70;;;3.30;99.90;;;;;;5086854;28;20177;-69
2023/12/17 06:09:21;;;;;;;13.33;11.93;;;3.30;99.90;;;;;;5086131;28;20191;-68
2023/12/17 06:11:47;;;;;;;11.20;10.20;;;3.30;99.90;;;;;;5086205;28;20470;-69
2023/12/17 06:14:12;;;;;;;10.50;9.30;;;3.30;99.90;;;;;;5085989;28;20439;-69
2023/12/17 06:16:41;;;;;;;14.80;12.47;;;3.30;99.90;;;;;;5086275;28;20200;-69
2023/12/17 06:19:07;;;;;;;12.83;11.30;;;3.30;99.90;;;;;;5085949;28;20186;-69
2023/12/17 06:21:33;;;;;;;13.20;11.87;;;3.20;99.90;;;;;;5085833;28;20479;-69
2023/12/17 06:23:58;;;;;;;13.10;11.80;;;3.20;99.90;;;;;;5105893;28;20176;-69
2023/12/17 06:26:25;;;;;;;15.37;13.27;;;3.20;99.90;;;;;;5096812;28;20245;-69
2023/12/17 06:28:50;;;;;;;15.20;12.80;;;3.20;99.90;;;;;;5085815;28;20177;-69
2023/12/17 06:31:17;;;;;;;13.77;10.60;;;3.20;99.90;;;;;;5086126;28;20439;-70
2023/12/17 06:33:42;;;;;;;13.13;11.33;;;3.20;99.90;;;;;;5105937;28;20257;-69
2023/12/17 06:36:08;;;;;;;11.33;10.23;;;3.20;99.90;;;;;;5099006;28;20917;-69
2023/12/17 06:38:34;;;;;;;14.60;12.90;;;3.20;99.90;;;;;;5085624;28;21051;-69
2023/12/17 06:40:59;;;;;;;16.03;14.00;;;3.20;99.90;;;;;;5085503;28;20470;-69
2023/12/17 06:43:25;;;;;;;11.50;10.27;;;3.10;99.90;;;;;;5085428;28;20534;-69
2023/12/17 06:45:51;;;;;;;11.83;10.60;;;3.10;99.90;;;;;;5067713;28;20195;-69
2023/12/17 06:48:16;;;;;;;12.87;10.90;;;3.10;99.90;;;;;;5085535;28;20288;-69
2023/12/17 06:50:42;;;;;;;18.77;13.60;;;3.20;99.90;;;;;;5085334;28;20251;-68
2023/12/17 06:53:08;;;;;;;13.13;11.00;;;3.20;99.90;;;;;;5085477;28;20209;-68
2023/12/17 06:55:33;;;;;;;14.57;13.07;;;3.10;99.90;;;;;;5067074;28;20185;-68
2023/12/17 06:57:59;;;;;;;13.17;11.57;;;3.10;99.90;;;;;;5085535;28;20921;-69
2023/12/17 07:00:24;;;;;;;11.53;10.33;;;3.10;99.90;;;;;;5085408;28;21014;-68
2023/12/17 07:02:51;;;;;;;12.93;11.37;;;3.10;99.90;;;;;;5085209;28;20846;-68
2023/12/17 07:05:16;;;;;;;15.03;12.07;;;3.20;99.90;;;;;;5085061;28;20246;-67
2023/12/17 07:07:46;;;;;;;13.43;12.03;;;3.20;99.90;;;;;;5101457;28;21239;-69
2023/12/17 07:10:12;;;;;;;15.33;12.80;;;3.20;99.90;;;;;;5105561;28;20177;-69
2023/12/17 07:12:38;;;;;;;19.57;15.20;;;3.20;99.90;;;;;;5086920;28;20442;-68
2023/12/17 07:15:04;;;;;;;16.57;14.77;;;3.20;99.90;;;;;;5093201;28;20220;-69
2023/12/17 07:17:30;;;;;;;14.23;12.73;;;3.10;99.90;;;;;;5087112;28;20173;-68
2023/12/17 07:19:55;;;;;;;17.63;13.23;;;3.10;99.90;;;;;;5084859;28;20425;-68
2023/12/17 07:22:22;;;;;;;16.20;13.53;;;3.10;99.90;;;;;;5084761;28;20917;-68
2023/12/17 07:24:49;;;;;;;14.30;12.50;;;3.10;99.90;;;;;;5084801;28;20171;-69
2023/12/17 07:27:14;;;;;;;13.20;11.63;;;3.20;99.90;;;;;;5066925;28;20415;-68
2023/12/17 07:29:40;;;;;;;14.40;13.00;;;3.10;99.90;;;;;;5084714;28;20484;-68
2023/12/17 07:32:06;;;;;;;12.80;10.83;;;3.20;99.90;;;;;;5084824;28;20203;-69
2023/12/17 07:34:31;;;;;;;13.40;12.10;;;3.20;99.90;;;;;;5066780;28;20264;-69
2023/12/17 07:36:57;;;;;;;11.97;10.67;;;3.20;99.90;;;;;;5084891;28;20203;-69
2023/12/17 07:39:22;;;;;;;12.63;11.43;;;3.30;99.90;;;;;;5086767;28;20184;-69
2023/12/17 07:41:48;;;;;;;12.93;11.60;;;3.40;99.90;;;;;;5095151;28;20197;-69
2023/12/17 07:44:13;;;;;;;12.87;11.27;;;3.40;99.90;;;;;;5114635;28;20160;-69
2023/12/17 07:46:39;;;;;;;13.80;12.30;;;3.50;99.90;;;;;;5114014;28;20165;-69
2023/12/17 07:49:04;;;;;;;13.10;11.67;;;3.50;99.90;;;;;;5114145;28;20172;-69
2023/12/17 07:51:30;;;;;;;12.93;11.60;;;3.60;99.90;;;;;;5114053;28;20261;-69
2023/12/17 07:53:55;;;;;;;11.80;10.70;;;3.60;99.90;;;;;;5113870;28;20200;-69
2023/12/17 07:56:21;;;;;;;14.93;11.90;;;3.60;99.90;;;;;;5095590;28;20176;-68
2023/12/17 07:58:46;;;;;;;11.20;10.03;;;3.70;99.90;;;;;;5086116;28;20180;-69
2023/12/17 08:01:12;;;;;;;16.63;14.30;;;3.70;99.90;;;;;;5083658;28;20210;-69
2023/12/17 08:03:38;;;;;;;11.80;10.13;;;3.60;99.90;;;;;;5084156;28;20184;-69
2023/12/17 08:06:03;;;;;;;12.60;10.87;;;3.50;99.90;;;;;;5094346;28;20168;-69
2023/12/17 08:08:29;;;;;;;16.40;13.37;;;3.50;99.90;;;;;;5104093;28;20434;-69
2023/12/17 08:10:54;;;;;;;11.10;10.10;;;3.40;99.90;;;;;;5083210;28;20193;-68
2023/12/17 08:13:20;;;;;;;12.37;11.07;;;3.50;99.90;;;;;;5083630;28;20173;-69
2023/12/17 08:15:46;;;;;;;12.37;10.40;;;3.60;99.90;;;;;;5083629;28;20186;-68
2023/12/17 08:18:12;;;;;;;12.00;10.70;;;3.60;99.90;;;;;;5083636;28;20213;-69
2023/12/17 08:20:38;;;;;;;14.30;11.73;;;3.60;99.90;;;;;;5083653;28;20180;-68
2023/12/17 08:23:04;;;;;;;10.47;9.47;;;3.70;99.90;;;;;;5088910;28;20819;-70
2023/12/17 08:25:30;;;;;;;12.10;10.40;;;3.70;99.90;;;;;;5083888;28;20199;-70
2023/12/17 08:27:56;;;;;;;10.00;9.10;;;3.80;99.90;;;;;;5103753;28;20421;-68
2023/12/17 08:30:22;;;;;;;14.00;10.10;;;3.90;99.90;;;;;;5103813;28;20406;-69
2023/12/17 08:32:47;;;;;;;12.00;9.67;;;3.90;99.90;;;;;;5104014;28;20193;-69
2023/12/17 08:35:14;;;;;;;10.10;9.10;;;3.90;99.90;;;;;;5112102;28;20176;-69
2023/12/17 08:37:40;;;;;;;10.47;9.37;;;3.90;99.90;;;;;;5113306;28;20575;-69
2023/12/17 08:40:06;;;;;;;11.07;10.00;;;3.90;99.90;;;;;;5113292;28;20487;-69
2023/12/17 08:42:31;;;;;;;11.30;9.83;;;3.90;99.90;;;;;;5113193;28;20241;-70
2023/12/17 08:44:57;;;;;;;10.73;9.40;;;3.90;99.90;;;;;;5113292;28;20407;-69
2023/12/17 08:47:22;;;;;;;10.40;9.43;;;4.00;99.90;;;;;;5121475;28;20175;-70
2023/12/17 08:49:48;;;;;;;16.13;11.50;;;4.10;99.90;;;;;;5123316;28;20173;-70
2023/12/17 08:52:13;;;;;;;11.60;10.30;;;4.20;99.90;;;;;;5105258;28;20191;-70
2023/12/17 08:54:39;;;;;;;11.13;10.03;;;4.20;99.90;;;;;;5122310;28;20214;-70
2023/12/17 08:57:05;;;;;;;12.23;10.63;;;4.30;99.90;;;;;;5127791;28;20167;-69
2023/12/17 08:59:31;;;;;;;13.80;12.30;;;4.30;99.90;;;;;;5133718;28;20172;-70
2023/12/17 09:01:57;;;;;;;15.30;12.10;;;4.10;99.90;;;;;;5130798;28;21026;-69
2023/12/17 09:04:22;;;;;;;13.30;11.00;;;4.10;99.90;;;;;;5093730;28;20162;-70
2023/12/17 09:06:48;;;;;;;16.23;10.60;;;4.30;99.90;;;;;;5118885;28;20445;-68
2023/12/17 09:09:14;;;;;;;15.00;12.80;;;4.40;99.90;;;;;;5118447;28;20172;-68
2023/12/17 09:11:40;;;;;;;14.27;12.87;;;4.40;99.90;;;;;;5130697;28;20199;-69
2023/12/17 09:14:07;;;;;;;16.63;14.70;;;4.50;99.90;;;;;;5094705;28;20427;-69
2023/12/17 09:16:33;;;;;;;12.03;10.80;;;4.50;99.90;;;;;;5093105;28;20404;-69
2023/12/17 09:18:59;;;;;;;13.80;12.40;;;4.50;99.90;;;;;;5093098;28;20409;-69
2023/12/17 09:21:25;;;;;;;13.37;11.97;;;4.50;99.90;;;;;;5092556;28;20549;-69
2023/12/17 09:23:51;;;;;;;13.10;11.70;;;4.50;99.90;;;;;;5112156;28;20654;-70
2023/12/17 09:26:18;;;;;;;15.83;14.30;;;4.50;99.90;;;;;;5116748;28;20413;-69
2023/12/17 09:28:44;;;;;;;13.80;12.40;;;4.60;99.90;;;;;;5116884;28;20164;-69
2023/12/17 09:31:10;;;;;;;12.67;11.57;;;4.70;99.90;;;;;;5116751;28;20808;-69
2023/12/17 09:33:36;;;;;;;13.67;12.37;;;4.90;99.90;;;;;;5116742;28;20452;-69
2023/12/17 09:36:03;;;;;;;13.17;11.87;;;4.90;99.90;;;;;;5116652;28;20421;-69
2023/12/17 09:38:28;;;;;;;11.60;10.43;;;5.00;99.90;;;;;;5116707;28;20418;-69
2023/12/17 09:40:54;;;;;;;12.83;11.53;;;5.10;99.90;;;;;;5116609;28;20435;-68
2023/12/17 09:43:24;;;;;;;13.60;12.30;;;5.30;99.90;;;;;;5116516;28;20169;-69
2023/12/17 09:45:53;;;;;;;13.47;12.13;;;5.40;99.90;;;;;;5116628;28;20402;-70
2023/12/17 09:48:19;;;;;;;12.73;11.43;;;5.50;99.90;;;;;;5117196;28;20403;-68
2023/12/17 09:50:44;;;;;;;12.37;11.27;;;5.70;99.90;;;;;;5116292;28;20415;-69
2023/12/17 09:53:10;;;;;;;13.13;11.83;;;5.60;99.90;;;;;;5116149;28;20410;-70
2023/12/17 09:55:37;;;;;;;12.83;11.73;;;5.50;99.90;;;;;;5116596;28;20176;-70
2023/12/17 09:58:04;;;;;;;13.53;12.23;;;5.50;99.90;;;;;;5115923;27;20407;-69
2023/12/17 10:00:33;;;;;;;16.60;14.80;;;5.70;99.90;;;;;;5116179;28;20442;-70
2023/12/17 10:03:04;;;;;;;15.83;14.40;;;5.80;99.90;;;;;;5116621;28;20456;-69
2023/12/17 10:05:30;;;;;;;16.37;14.73;;;5.70;99.90;;;;;;5116286;28;20397;-70
2023/12/17 10:07:56;;;;;;;16.30;14.70;;;5.50;99.90;;;;;;5116211;28;20488;-69
2023/12/17 10:10:22;;;;;;;17.20;15.40;;;5.50;99.90;;;;;;5116277;28;20438;-70
2023/12/17 10:12:47;;;;;;;18.47;16.77;;;5.80;99.90;;;;;;5115565;28;20186;-69
2023/12/17 10:15:13;;;;;;;15.67;14.17;;;6.00;99.90;;;;;;5115766;28;20187;-68
2023/12/17 10:17:40;;;;;;;17.93;16.07;;;6.20;99.90;;;;;;5115825;28;20180;-70
2023/12/17 10:20:06;;;;;;;15.87;14.37;;;6.40;99.90;;;;;;5116180;28;20174;-69
2023/12/17 10:22:32;;;;;;;16.10;14.50;;;6.30;99.90;;;;;;5115620;28;20548;-70
2023/12/17 10:24:58;;;;;;;15.10;13.67;;;6.10;99.90;;;;;;5116051;28;20822;-70
2023/12/17 10:27:23;;;;;;;15.07;13.70;;;5.90;99.90;;;;;;5116270;28;20167;-69
2023/12/17 10:29:50;;;;;;;16.50;14.77;;;6.10;99.90;;;;;;5116013;28;20176;-69
2023/12/17 10:32:19;;;;;;;15.30;13.83;;;6.40;99.90;;;;;;5115648;28;20213;-70
2023/12/17 10:34:46;;;;;;;14.13;12.73;;;6.60;99.90;;;;;;5114837;28;20485;-69
2023/12/17 10:37:15;;;;;;;16.10;14.57;;;6.70;99.90;;;;;;5097226;28;20408;-68
2023/12/17 10:39:41;;;;;;;16.50;14.80;;;6.80;99.90;;;;;;5115643;28;20460;-70
2023/12/17 10:42:08;;;;;;;16.70;15.00;;;7.00;99.90;;;;;;5115182;28;20540;-70
2023/12/17 10:44:35;;;;;;;16.20;14.60;;;7.10;99.90;;;;;;5116189;28;20485;-69
2023/12/17 10:47:03;;;;;;;15.87;14.40;;;7.20;99.90;;;;;;5115792;28;20456;-69
2023/12/17 10:49:30;;;;;;;15.23;13.63;;;7.20;99.90;;;;;;5115511;28;20408;-70
2023/12/17 10:51:56;;;;;;;14.50;13.20;;;7.40;99.90;;;;;;5115660;28;20437;-69
2023/12/17 10:54:22;;;;;;;13.87;12.43;;;7.60;99.90;;;;;;5114914;28;20426;-69
2023/12/17 10:56:53;;;;;;;13.77;12.47;;;8.70;99.90;;;;;;5115063;28;20430;-70
2023/12/17 10:59:24;;;;;;;14.37;12.73;;;10.10;99.90;;;;;;5115277;28;20834;-70
2023/12/17 11:01:54;;;;;;;12.80;11.60;;;11.40;99.90;;;;;;5115596;28;20985;-67
2023/12/17 11:04:20;;;;;;;10.90;9.87;;;13.00;99.90;;;;;;5114898;28;20409;-70
2023/12/17 11:06:46;;;;;;;11.70;10.57;;;14.30;99.90;;;;;;5115183;28;20431;-70
2023/12/17 11:09:11;;;;;;;12.50;11.40;;;15.40;99.90;;;;;;5115360;28;20839;-71
2023/12/17 11:11:37;;;;;;;12.43;11.23;;;16.20;98.10;;;;;;5114298;28;20677;-67
2023/12/17 11:14:03;;;;;;;11.17;10.20;;;17.10;96.60;;;;;;5114719;28;20186;-68
2023/12/17 11:16:29;;;;;;;12.17;10.93;;;17.70;94.60;;;;;;5114532;28;20186;-69
2023/12/17 11:19:00;;;;;;;11.67;10.57;;;18.20;93.10;;;;;;5114495;28;20995;-68
2023/12/17 11:21:27;;;;;;;11.57;10.57;;;18.60;91.70;;;;;;5114503;28;20841;-68
2023/12/17 11:23:53;;;;;;;11.90;10.70;;;18.90;90.90;;;;;;5114527;28;20398;-68
2023/12/17 11:26:19;;;;;;;10.90;9.90;;;19.20;89.90;;;;;;5114363;28;20927;-68
2023/12/17 11:28:45;;;;;;;12.33;11.17;;;19.40;86.70;;;;;;5114441;28;20200;-68
2023/12/17 11:31:14;;;;;;;12.60;11.30;;;19.40;87.00;;;;;;5114109;28;20494;-69
2023/12/17 11:33:41;;;;;;;11.97;10.80;;;19.40;86.10;;;;;;5114277;28;20795;-69
2023/12/17 11:36:08;;;;;;;12.60;11.50;;;19.60;84.40;;;;;;5114688;28;20441;-69
2023/12/17 11:38:37;;;;;;;12.53;11.33;;;18.90;84.40;;;;;;5114742;28;20449;-69
2023/12/17 11:41:04;;;;;;;11.37;10.37;;;17.20;86.30;;;;;;5114006;27;20464;-69
2023/12/17 11:43:30;;;;;;;13.33;11.80;;;15.60;91.20;;;;;;5113905;28;20403;-69
2023/12/17 11:45:56;;;;;;;12.10;11.10;;;15.40;92.60;;;;;;5114618;28;20411;-69
2023/12/17 11:48:22;;;;;;;13.40;11.97;;;16.40;91.70;;;;;;5113949;28;20846;-69
2023/12/17 11:50:52;;;;;;;12.57;11.37;;;16.40;91.10;;;;;;5114179;28;20217;-69
2023/12/17 11:53:19;;;;;;;12.70;11.50;;;16.40;91.40;;;;;;5113752;28;20173;-68
2023/12/17 11:55:48;;;;;;;12.77;11.50;;;17.40;90.60;;;;;;5114074;28;20892;-69
2023/12/17 11:58:21;;;;;;;13.37;12.27;;;17.50;89.60;;;;;;5113672;28;20403;-69
2023/12/17 12:01:05;;;;;;;12.63;11.50;;;17.60;90.20;;;;;;5113647;28;20902;-69
2023/12/17 12:03:31;;;;;;;12.23;11.13;;;18.00;88.10;;;;;;5111383;28;20877;-68
2023/12/17 12:06:06;;;;;;;13.40;12.17;;;17.60;87.90;;;;;;5113715;28;20426;-69
2023/12/17 12:08:34;;;;;;;12.50;11.17;;;17.70;88.90;;;;;;5114273;28;20367;-68
2023/12/17 12:11:02;;;;;;;12.13;10.70;;;18.60;87.40;;;;;;5113915;28;20425;-68
2023/12/17 12:13:27;;;;;;;13.00;11.70;;;19.50;84.40;;;;;;5113705;28;20467;-68
2023/12/17 12:15:56;;;;;;;16.43;14.00;;;19.40;82.90;;;;;;5113841;28;20761;-68
2023/12/17 12:18:22;;;;;;;12.83;11.53;;;19.70;83.70;;;;;;5113360;28;20189;-69
2023/12/17 12:20:49;;;;;;;16.43;12.53;;;20.30;82.20;;;;;;5113054;28;20433;-69
2023/12/17 12:23:14;;;;;;;17.60;15.30;;;20.80;80.60;;;;;;5113635;28;20164;-69
2023/12/17 12:25:40;;;;;;;15.70;14.13;;;20.60;78.70;;;;;;5113438;28;20402;-69
2023/12/17 12:28:28;;;;;;;12.30;11.00;;;19.70;80.00;;;;;;5113707;28;20169;-68
2023/12/17 12:30:53;;;;;;;12.80;11.50;;;18.40;81.80;;;;;;5113809;28;20183;-69
2023/12/17 12:33:19;;;;;;;11.53;10.60;;;16.80;85.00;;;;;;5113461;28;20402;-68
2023/12/17 12:35:47;;;;;;;12.50;11.50;;;15.40;89.40;;;;;;5113391;28;20706;-68